Latest Weather Observations for Beaudesert AWS

IDQ60901

Issued at 6:51 pm EST Friday 20 October 2017 (issued every 10 minutes, with the page automatically refreshed every 10 minutes)

About weather observations | Map of Brisbane area stations | Latest observations for Brisbane area | Other Formats
Station Details ID: 040983 Name: BEAUDESERT DRUMLEY STREET Lat: -27.97 Lon: 152.99 Height: 47.81 m
Data from the previous 72 hours. | See also: Recent months at Beaudesert AWS
Date/Time
EST
Temp
°C
App
Temp
°C
Dew
Point
°C
Rel
Hum
%
Delta-T
°C
Wind Press
QNH
hPa
Press
MSL
hPa
Rain since
9am
mm
Dir  Spd
km/h
Gust
km/h
Spd
kts
Gust
kts
20/06:30pm 22.1 22.7 15.2 65 4.1 NNE 6 9 3 5 1016.9 1016.8 0.0
20/06:00pm 22.9 23.4 15.5 63 4.4 NNE 7 15 4 8 1016.8 1016.7 0.0
20/05:30pm 24.0 24.6 15.8 60 5.0 NNE 7 15 4 8 1016.6 1016.5 0.0
20/05:00pm 24.8 24.7 16.0 58 5.4 NNE 11 19 6 10 1016.4 1016.3 0.0
20/04:30pm 25.7 25.4 15.4 53 6.2 NNE 11 22 6 12 1016.3 1016.2 0.0
20/04:00pm 26.5 26.2 15.5 50 6.7 NNE 11 17 6 9 1016.4 1016.3 0.0
20/03:30pm 26.6 26.0 15.6 50 6.7 N 13 20 7 11 1016.5 1016.4 0.0
20/03:00pm 26.9 26.7 14.6 46 7.4 N 9 17 5 9 1016.8 1016.7 0.0
20/02:30pm 27.5 27.8 14.5 45 7.8 NNW 6 13 3 7 1017.2 1017.1 0.0
20/02:00pm 26.7 26.8 15.4 50 6.9 N 9 17 5 9 1017.8 1017.7 0.0
20/01:30pm 26.6 26.5 15.0 49 7.0 NNW 9 19 5 10 1018.5 1018.4 0.0
20/01:00pm 26.4 26.0 15.1 49 6.8 WNW 11 19 6 10 1018.8 1018.7 0.0
20/12:30pm 25.9 26.2 15.9 54 6.1 WNW 9 17 5 9 1019.4 1019.3 0.0
20/12:00pm 25.8 25.9 15.5 53 6.2 WNW 9 17 5 9 1019.7 1019.6 0.0
20/11:30am 25.2 25.2 14.3 50 6.5 NW 7 11 4 6 1020.3 1020.2 0.0
20/11:00am 24.3 24.0 14.4 54 5.9 NNW 9 17 5 9 1020.7 1020.6 0.0
20/10:30am 24.3 25.2 15.0 56 5.6 NW 4 9 2 5 1021.1 1021.0 0.0
20/10:00am 23.8 24.6 15.8 61 4.8 NW 6 11 3 6 1021.5 1021.4 0.0
20/09:30am 24.1 25.0 16.1 61 4.9 NNW 6 11 3 6 1021.6 1021.5 0.0
20/09:00am 22.8 24.1 17.0 70 3.6 NW 6 13 3 7 1021.7 1021.6 0.0
20/08:30am 21.7 23.6 16.6 73 3.1 NW 2 6 1 3 1022.0 1021.9 0.0
20/08:00am 20.6 22.6 17.0 80 2.2 N 2 6 1 3 1022.2 1022.1 0.0
20/07:30am 18.9 20.6 16.1 84 1.7 NNW 2 4 1 2 1022.2 1022.1 0.0
20/07:00am 17.2 19.2 15.9 92 0.8 CALM 0 0 0 0 1022.2 1022.1 0.0
20/06:30am 15.6 17.3 15.1 97 0.3 CALM 0 0 0 0 1022.3 1022.2 0.0
20/06:00am 14.3 15.6 14.1 99 0.1 CALM 0 0 0 0 1022.2 1022.1 0.0
20/05:30am 12.5 13.1 12.0 97 0.3 CALM 0 0 0 0 1022.1 1022.0 0.0
20/05:00am 13.5 14.4 13.0 97 0.3 CALM 0 0 0 0 1021.7 1021.6 0.0
20/04:30am 13.7 14.7 13.2 97 0.3 CALM 0 0 0 0 1021.8 1021.7 0.0
20/04:00am 13.4 14.3 12.9 97 0.3 CALM 0 0 0 0 1021.6 1021.5 0.0
20/03:30am 13.9 14.6 13.4 97 0.3 N 2 4 1 2 1021.4 1021.3 0.0
20/03:00am 13.5 14.4 12.9 96 0.3 CALM 0 4 0 2 1021.6 1021.5 0.0
20/02:30am 14.4 15.6 13.8 96 0.3 CALM 0 2 0 1 1021.9 1021.8 0.0
20/02:00am 14.4 15.2 13.8 96 0.3 N 2 2 1 1 1022.2 1022.1 0.0
20/01:30am 14.6 15.1 14.0 96 0.3 N 4 6 2 3 1022.5 1022.4 0.0
20/01:00am 14.9 15.5 14.3 96 0.3 SE 4 6 2 3 1023.0 1022.8 0.0
20/12:30am 14.9 16.3 14.3 96 0.3 CALM 0 0 0 0 1023.3 1023.1 0.0
20/12:00am 14.2 15.2 13.2 94 0.6 CALM 0 0 0 0 1023.8 1023.6 0.0
 
Date/Time
EST
Temp
°C
App
Temp
°C
Dew
Point
°C
Rel
Hum
%
Delta-T
°C
Wind Press
QNH
hPa
Press
MSL
hPa
Rain since
9am
mm
Dir  Spd
km/h
Gust
km/h
Spd
kts
Gust
kts
19/11:30pm 14.5 15.6 13.5 94 0.6 CALM 0 0 0 0 1024.3 1024.1 0.0
19/11:00pm 15.4 16.1 14.4 94 0.6 N 4 6 2 3 1024.6 1024.4 0.0
19/10:30pm 14.9 16.1 13.8 93 0.6 CALM 0 0 0 0 1024.8 1024.6 0.0
19/10:00pm 14.8 15.9 13.5 92 0.7 CALM 0 6 0 3 1024.8 1024.6 0.0
19/09:30pm 15.8 17.2 14.3 91 0.9 CALM 0 0 0 0 1024.9 1024.7 0.0
19/09:00pm 15.4 16.5 13.6 89 1.0 CALM 0 0 0 0 1025.1 1024.9 0.0
19/08:30pm 16.3 17.7 14.5 89 1.0 CALM 0 0 0 0 1025.2 1025.0 0.0
19/08:00pm 16.9 18.2 14.0 83 1.6 CALM 0 2 0 1 1025.0 1024.8 0.0
19/07:30pm 17.9 19.4 14.6 81 1.9 CALM 0 0 0 0 1024.7 1024.5 0.0
19/07:00pm 18.8 20.2 14.5 76 2.5 CALM 0 0 0 0 1024.6 1024.4 0.0
19/06:30pm 20.1 20.9 14.7 71 3.2 NNE 4 7 2 4 1024.3 1024.1 0.0
19/06:00pm 20.6 21.0 14.7 69 3.4 ENE 6 11 3 6 1024.0 1023.8 0.0
19/05:30pm 21.4 21.6 14.8 66 3.9 ENE 7 13 4 7 1023.7 1023.5 0.0
19/05:00pm 22.7 21.8 14.8 61 4.7 ENE 13 24 7 13 1023.4 1023.2 0.0
19/04:30pm 23.1 22.5 14.7 59 5.0 ENE 11 20 6 11 1023.2 1023.0 0.0
19/04:00pm 23.0 22.8 14.6 59 5.0 NE 9 20 5 11 1023.1 1022.9 0.0
19/03:30pm 23.1 23.0 14.9 60 4.9 NE 9 17 5 9 1023.3 1023.1 0.0
19/03:00pm 23.7 23.4 15.5 60 4.9 NNE 11 20 6 11 1023.4 1023.2 0.0
19/02:30pm 24.2 23.4 15.1 56 5.5 ENE 13 20 7 11 1023.5 1023.3 0.0
19/02:00pm 23.6 23.0 14.6 57 5.3 ENE 11 20 6 11 1023.9 1023.7 0.0
19/01:30pm 23.9 23.6 15.4 59 5.1 ENE 11 22 6 12 1024.4 1024.2 0.0
19/01:00pm 23.6 22.9 15.4 60 4.9 ENE 13 22 7 12 1024.8 1024.6 0.0
19/12:30pm 23.5 22.1 16.5 65 4.3 ENE 19 28 10 15 1025.0 1024.8 0.0
19/12:00pm 23.3 22.4 15.9 63 4.5 NE 15 28 8 15 1025.2 1025.0 0.0
19/11:30am 23.2 22.3 15.8 63 4.5 NE 15 28 8 15 1025.3 1025.1 0.0
19/11:00am 23.0 22.1 15.8 64 4.3 NE 15 28 8 15 1025.5 1025.3 0.0
19/10:30am 22.9 21.7 16.2 66 4.1 E 17 28 9 15 1025.8 1025.6 0.0
19/10:00am 22.5 21.5 15.6 65 4.1 ESE 15 24 8 13 1026.0 1025.8 0.0
19/09:30am 23.0 22.6 16.1 65 4.2 E 13 20 7 11 1026.2 1026.0 0.0
19/09:00am 22.3 22.1 15.6 66 4.0 ENE 11 15 6 8 1026.4 1026.2 0.2
19/08:30am 22.1 21.5 15.7 67 3.8 ENE 13 22 7 12 1026.4 1026.2 0.2
19/08:00am 21.8 22.2 16.3 71 3.3 NNE 9 19 5 10 1026.3 1026.1 0.2
19/07:30am 21.4 22.3 16.1 72 3.2 NE 6 11 3 6 1026.3 1026.1 0.2
19/07:00am 19.5 21.7 16.5 83 1.8 CALM 0 4 0 2 1026.4 1026.2 0.2
19/06:30am 19.4 21.3 16.6 84 1.7 SSW 2 4 1 2 1026.1 1025.9 0.2
19/06:00am 18.7 20.4 16.1 85 1.5 SSW 2 4 1 2 1026.0 1025.8 0.2
19/05:30am 18.4 19.5 15.5 83 1.7 S 4 6 2 3 1025.8 1025.6 0.2
19/05:00am 18.7 20.4 15.2 80 2.0 CALM 0 2 0 1 1025.6 1025.4 0.2
19/04:30am 19.1 20.0 15.2 78 2.3 SSE 4 6 2 3 1025.4 1025.2 0.2
19/04:00am 19.1 19.8 15.6 80 2.1 SE 6 9 3 5 1025.3 1025.1 0.2
19/03:30am 18.7 20.0 15.2 80 2.1 S 2 4 1 2 1025.2 1025.0 0.2
19/03:00am 19.4 19.9 15.1 76 2.5 SE 6 11 3 6 1024.9 1024.7 0.2
19/02:30am 19.0 19.4 15.3 79 2.2 SE 7 13 4 7 1024.9 1024.7 0.2
19/02:00am 18.9 19.3 15.2 79 2.2 SE 7 13 4 7 1025.1 1024.9 0.2
19/01:30am 19.2 19.2 15.3 78 2.3 SE 9 13 5 7 1025.3 1025.1 0.2
19/01:00am 19.3 19.8 15.6 79 2.2 SE 7 13 4 7 1025.7 1025.5 0.2
19/12:30am 19.1 19.9 16.3 84 1.7 SE 7 13 4 7 1026.0 1025.8 0.2
19/12:00am 18.4 19.3 16.0 86 1.4 S 6 7 3 4 1026.4 1026.2 0.2
 
Date/Time
EST
Temp
°C
App
Temp
°C
Dew
Point
°C
Rel
Hum
%
Delta-T
°C
Wind Press
QNH
hPa
Press
MSL
hPa
Rain since
9am
mm
Dir  Spd
km/h
Gust
km/h
Spd
kts
Gust
kts
18/11:30pm 18.4 19.3 16.0 86 1.4 SSW 6 7 3 4 1026.6 1026.4 0.2
18/11:00pm 18.3 19.5 15.9 86 1.4 S 4 6 2 3 1026.9 1026.7 0.2
18/10:30pm 18.6 19.5 16.0 85 1.5 ESE 6 9 3 5 1027.1 1026.9 0.2
18/10:00pm 18.3 19.0 16.1 87 1.3 SE 7 9 4 5 1027.1 1026.9 0.2
18/09:30pm 18.4 18.8 16.2 87 1.3 SE 9 13 5 7 1027.1 1026.9 0.2
18/09:00pm 18.6 19.3 16.0 85 1.5 ESE 7 13 4 7 1027.2 1027.0 0.2
18/08:30pm 18.6 19.0 16.2 86 1.4 ESE 9 13 5 7 1026.9 1026.7 0.2
18/08:00pm 18.5 19.5 16.3 87 1.3 SSE 6 9 3 5 1026.7 1026.5 0.2
18/07:30pm 18.8 20.3 16.6 87 1.3 SE 4 9 2 5 1026.2 1026.0 0.2
18/07:00pm 18.6 19.6 16.4 87 1.3 ESE 6 9 3 5 1025.9 1025.7 0.2
18/06:30pm 18.6 18.9 16.0 85 1.5 ESE 9 15 5 8 1025.6 1025.4 0.2
18/06:00pm 19.6 18.6 15.7 78 2.3 SE 15 26 8 14 1025.2 1025.0 0.2
18/05:30pm 20.2 19.2 15.6 75 2.7 ESE 15 24 8 13 1024.7 1024.5 0.2
18/05:00pm 21.0 21.5 16.6 76 2.7 ESE 9 15 5 8 1024.5 1024.3 0.2
18/04:30pm 20.7 19.8 15.9 74 2.9 ESE 15 26 8 14 1024.6 1024.4 0.2
18/04:00pm 19.9 18.6 15.7 77 2.5 ESE 17 26 9 14 1024.4 1024.2 0.2
18/03:30pm 20.9 19.1 16.1 74 2.9 E 20 30 11 16 1024.2 1024.0 0.2
18/03:00pm 21.4 20.1 15.9 71 3.3 E 17 28 9 15 1024.2 1024.0 0.2
18/02:30pm 21.6 19.8 15.4 68 3.7 ESE 19 32 10 17 1024.6 1024.4 0.2
18/02:00pm 22.1 20.2 15.7 67 3.8 ESE 20 33 11 18 1024.7 1024.5 0.2
18/01:30pm 23.1 21.5 16.4 66 4.1 ESE 20 33 11 18 1024.6 1024.4 0.2
18/01:00pm 23.0 21.0 16.5 67 4.0 ESE 22 37 12 20 1025.0 1024.8 0.2
18/12:30pm 23.4 22.0 16.9 67 4.0 E 20 28 11 15 1025.2 1025.0 0.2
18/12:00pm 23.6 22.5 17.8 70 3.6 E 20 35 11 19 1025.4 1025.2 0.2
18/11:30am 22.3 20.2 16.3 69 3.6 ESE 22 37 12 20 1025.4 1025.2 0.2
18/11:00am 21.8 20.2 15.9 69 3.5 ESE 19 39 10 21 1025.6 1025.4 0.2
18/10:30am 22.4 21.4 16.7 70 3.5 ESE 17 28 9 15 1025.6 1025.4 0.2
18/10:00am 22.0 19.6 16.3 70 3.4 ESE 24 37 13 20 1025.8 1025.6 0.2
18/09:30am 21.1 20.2 16.9 77 2.6 ESE 17 28 9 15 1025.9 1025.7 0.2
18/09:00am 21.4 20.0 16.6 74 2.9 ESE 19 28 10 15 1025.7 1025.5 0.2
18/08:30am 21.1 20.2 16.9 77 2.6 E 17 32 9 17 1025.5 1025.3 0.2
18/08:00am 21.3 21.2 16.0 72 3.2 ESE 11 24 6 13 1025.2 1025.0 0.2
18/07:30am 20.8 20.7 16.0 74 2.9 ESE 11 19 6 10 1024.9 1024.7 0.2
18/07:00am 20.3 20.9 15.9 76 2.6 ESE 7 13 4 7 1024.9 1024.7 0.2
18/06:30am 19.9 19.8 16.0 78 2.3 ESE 11 17 6 9 1024.7 1024.5 0.2
18/06:00am 19.5 20.2 16.0 80 2.1 ESE 7 15 4 8 1024.3 1024.1 0.2
18/05:30am 19.2 19.7 15.5 79 2.2 ESE 7 15 4 8 1023.9 1023.7 0.2
18/05:00am 19.2 20.2 15.3 78 2.3 ESE 4 7 2 4 1023.4 1023.2 0.2
18/04:30am 19.5 18.9 15.6 78 2.3 ESE 13 20 7 11 1023.1 1022.9 0.2
18/04:00am 19.3 20.0 15.6 79 2.2 ESE 6 9 3 5 1022.9 1022.7 0.2
18/03:30am 19.5 19.9 15.4 77 2.4 SE 7 15 4 8 1022.7 1022.6 0.2
18/03:00am 19.7 19.1 15.6 77 2.4 SE 13 24 7 13 1022.7 1022.6 0.2
18/02:30am 19.5 20.1 15.4 77 2.4 SE 6 9 3 5 1022.9 1022.7 0.2
18/02:00am 20.0 19.6 15.2 74 2.8 SE 11 20 6 11 1022.6 1022.5 0.2
18/01:30am 19.9 19.2 15.3 75 2.7 ESE 13 20 7 11 1022.6 1022.5 0.2
18/01:00am 19.7 19.5 15.8 78 2.3 ESE 11 22 6 12 1023.1 1022.9 0.2
18/12:30am 19.7 19.1 15.6 77 2.4 ESE 13 24 7 13 1023.6 1023.4 0.2
18/12:00am 19.4 20.0 15.7 79 2.2 SE 7 13 4 7 1023.7 1023.5 0.2
 
Date/Time
EST
Temp
°C
App
Temp
°C
Dew
Point
°C
Rel
Hum
%
Delta-T
°C
Wind Press
QNH
hPa
Press
MSL
hPa
Rain since
9am
mm
Dir  Spd
km/h
Gust
km/h
Spd
kts
Gust
kts
17/11:30pm 19.4 19.3 15.9 80 2.1 SE 11 20 6 11 1024.0 1023.8 0.2
17/11:00pm 19.6 19.2 16.1 80 2.1 ESE 13 20 7 11 1024.2 1024.0 0.2
17/10:30pm 18.9 20.1 16.0 83 1.7 SE 4 6 2 3 1024.5 1024.3 0.2
17/10:00pm 19.1 19.4 16.1 83 1.8 SE 9 20 5 11 1024.5 1024.3 0.2
17/09:30pm 19.5 19.9 16.2 81 2.0 ESE 9 20 5 11 1024.2 1024.0 0.2
17/09:00pm 18.9 19.2 16.0 83 1.7 SSE 9 11 5 6 1024.0 1023.8 0.2
17/08:30pm 19.4 19.6 15.7 79 2.2 SSE 9 20 5 11 1024.1 1023.9 0.2
17/08:00pm 19.7 20.3 15.8 78 2.3 SE 7 11 4 6 1024.4 1024.2 0.2
17/07:30pm 19.7 20.3 15.8 78 2.3 SE 7 13 4 7 1023.9 1023.7 0.2
17/07:00pm 19.6 19.6 16.3 81 2.0 SE 11 20 6 11 1023.7 1023.5 0.2

Latest Capital City Observations: Canberra | Sydney | Melbourne | Brisbane | Adelaide | Perth | Hobart | Darwin

Other Formats:

Comma delimited format used in spreadsheet applications
http://www.bom.gov.au/fwo/IDQ60901/IDQ60901.95575.axf

JavaScript Object Notation format (JSON) in row-major order
http://www.bom.gov.au/fwo/IDQ60901/IDQ60901.95575.json